Time;durP1;ratioP1;P1;durP2;ratioP2;P2;SDS_P1;SDS_P2;PMS_P1;PMS_P2;Temp;Humidity;BMP_temperature;BMP_pressure;BME280_temperature;BME280_humidity;BME280_pressure;Samples;Min_cycle;Max_cycle;Signal;HPM_P1;HPM_P2
2023/07/19 00:02:21;;;;;;;6.20;3.30;;;;;;;15.88;100.00;100948.01;105100;1263;61652;-44
2023/07/19 00:04:49;;;;;;;7.30;3.10;;;;;;;15.78;100.00;100942.73;105119;1267;59771;-45
2023/07/19 00:07:17;;;;;;;14.50;3.30;;;;;;;15.70;100.00;100936.93;105267;1261;71839;-45
2023/07/19 00:09:44;;;;;;;11.30;3.80;;;;;;;15.61;100.00;100933.73;105185;1267;64030;-45
2023/07/19 00:12:12;;;;;;;8.70;3.50;;;;;;;15.52;100.00;100932.97;105169;1267;71469;-45
2023/07/19 00:14:40;;;;;;;11.20;3.80;;;;;;;15.42;100.00;100936.73;105196;1261;61636;-45
2023/07/19 00:17:08;;;;;;;7.30;3.50;;;;;;;15.36;100.00;100937.98;105205;1266;59725;-45
2023/07/19 00:19:36;;;;;;;7.00;3.60;;;;;;;15.30;100.00;100940.42;105250;1260;71842;-45
2023/07/19 00:22:04;;;;;;;10.70;4.00;;;;;;;15.23;100.00;100940.98;105199;1260;64776;-45
2023/07/19 01:09:23;;;;;;;10.30;3.80;;;;;;;14.09;100.00;100888.70;102633;1292;600645;-43
2023/07/19 01:11:52;;;;;;;8.60;4.20;;;;;;;14.02;100.00;100862.16;104782;1271;60383;-44
2023/07/19 01:14:20;;;;;;;7.20;3.50;;;;;;;13.98;100.00;100853.92;104843;1272;59303;-43
2023/07/19 01:16:47;;;;;;;5.80;3.80;;;;;;;13.95;100.00;100847.23;104816;1266;71029;-44
2023/07/19 01:19:16;;;;;;;8.60;4.20;;;;;;;13.92;100.00;100840.05;105470;1256;64587;-43
2023/07/19 01:21:43;;;;;;;5.30;3.70;;;;;;;13.87;100.00;100833.40;105643;1256;72639;-44
2023/07/19 01:24:11;;;;;;;8.40;3.60;;;;;;;13.83;100.00;100825.55;105553;1254;240092;-44
2023/07/19 01:26:39;;;;;;;5.60;3.70;;;;;;;13.78;100.00;100819.06;105802;1257;59335;-44
2023/07/19 01:29:07;;;;;;;6.30;4.00;;;;;;;13.74;100.00;100809.80;105689;1253;72214;-44
2023/07/19 01:31:35;;;;;;;6.70;3.80;;;;;;;13.74;100.00;100803.23;105703;1258;63992;-44
2023/07/19 01:34:03;;;;;;;11.40;3.80;;;;;;;13.71;100.00;100798.25;105632;1258;71427;-45
2023/07/19 01:36:30;;;;;;;4.10;3.70;;;;;;;13.68;100.00;100791.23;105850;1253;60732;-45
2023/07/19 01:38:59;;;;;;;5.00;3.70;;;;;;;13.64;100.00;100782.29;105780;1253;59653;-43
2023/07/19 01:41:27;;;;;;;4.90;3.90;;;;;;;13.62;100.00;100779.58;105805;1254;71977;-44
2023/07/19 01:43:54;;;;;;;14.80;4.20;;;;;;;13.58;100.00;100773.29;105796;1258;63905;-45
2023/07/19 01:46:22;;;;;;;9.30;4.20;;;;;;;13.53;100.00;100769.41;105811;1254;71508;-44
2023/07/19 01:48:50;;;;;;;6.80;3.50;;;;;;;13.50;100.00;100766.54;105803;1259;60386;-44
2023/07/19 01:51:17;;;;;;;5.70;3.70;;;;;;;13.48;100.00;100762.42;105817;1257;59632;-45
2023/07/19 01:53:46;;;;;;;5.60;4.00;;;;;;;13.44;100.00;100758.37;105758;1252;71755;-44
2023/07/19 01:56:15;;;;;;;11.60;4.40;;;;;;;13.43;100.00;100752.85;105793;1253;63453;-44
2023/07/19 01:58:43;;;;;;;16.30;4.00;;;;;;;13.41;100.00;100743.16;105691;1257;71370;-44
2023/07/19 02:01:10;;;;;;;6.30;4.00;;;;;;;13.41;100.00;100740.40;105608;1256;60450;-45
2023/07/19 02:03:38;;;;;;;6.80;4.20;;;;;;;13.40;100.00;100735.21;105933;1256;59612;-44
2023/07/19 02:06:06;;;;;;;11.80;4.00;;;;;;;13.41;100.00;100725.48;105654;1253;71818;-45
2023/07/19 02:08:34;;;;;;;9.40;3.70;;;;;;;13.41;100.00;100718.36;105788;1257;65147;-43
2023/07/19 02:11:02;;;;;;;16.80;3.70;;;;;;;13.43;100.00;100708.13;105757;1256;71339;-44
2023/07/19 02:13:30;;;;;;;8.20;3.50;;;;;;;13.45;100.00;100703.73;105679;1256;60432;-44
2023/07/19 02:15:57;;;;;;;11.80;3.80;;;;;;;13.48;100.00;100699.33;105650;1260;59744;-45
2023/07/19 02:18:25;;;;;;;8.70;3.00;;;;;;;13.51;100.00;100696.67;105769;1259;73116;-45
2023/07/19 02:20:55;;;;;;;5.10;3.40;;;;;;;13.52;100.00;100694.20;105807;1257;63902;-44
2023/07/19 02:23:23;;;;;;;11.90;3.70;;;;;;;13.57;100.00;100692.69;105662;1254;71740;-45
2023/07/19 02:25:50;;;;;;;10.20;3.80;;;;;;;13.63;100.00;100687.30;105744;1253;60421;-45
2023/07/19 02:28:18;;;;;;;10.20;3.70;;;;;;;13.71;100.00;100685.20;105778;1258;59645;-45
2023/07/19 02:30:46;;;;;;;15.60;3.50;;;;;;;13.81;100.00;100684.56;105755;1253;70895;-44
2023/07/19 02:33:14;;;;;;;8.00;3.70;;;;;;;13.93;100.00;100677.64;105687;1253;64546;-44
2023/07/19 02:35:42;;;;;;;8.50;3.50;;;;;;;14.03;100.00;100670.41;105831;1253;72693;-45
2023/07/19 02:38:10;;;;;;;6.60;3.30;;;;;;;14.09;100.00;100665.38;105746;1259;60488;-44
2023/07/19 02:40:37;;;;;;;10.10;3.20;;;;;;;14.14;100.00;100662.63;105750;1258;59658;-45
2023/07/19 02:43:05;;;;;;;7.50;3.50;;;;;;;14.19;100.00;100660.92;105648;1255;71794;-45
2023/07/19 02:45:35;;;;;;;7.60;3.60;;;;;;;14.24;100.00;100656.92;105772;1258;65307;-45
2023/07/19 02:48:03;;;;;;;9.00;3.40;;;;;;;14.29;100.00;100654.70;105652;1261;72675;-44
2023/07/19 02:50:31;;;;;;;12.00;4.40;;;;;;;14.37;100.00;100648.73;105754;1259;59724;-43
2023/07/19 02:52:59;;;;;;;16.60;3.60;;;;;;;14.47;100.00;100651.39;105636;1253;59985;-43
2023/07/19 02:55:27;;;;;;;4.00;3.00;;;;;;;14.56;100.00;100650.59;105655;1254;71755;-45
2023/07/19 02:57:55;;;;;;;10.90;3.40;;;;;;;14.63;100.00;100649.66;105688;1261;63022;-44
2023/07/19 03:00:23;;;;;;;3.80;2.90;;;;;;;14.69;100.00;100648.79;105632;1253;72651;-44
2023/07/19 03:02:53;;;;;;;7.30;3.50;;;;;;;14.74;100.00;100644.12;105688;1256;60468;-43
2023/07/19 03:05:22;;;;;;;8.60;3.10;;;;;;;14.79;100.00;100641.19;105710;1258;59660;-44
2023/07/19 03:07:50;;;;;;;14.10;3.30;;;;;;;14.85;100.00;100643.75;105791;1259;72910;-46
2023/07/19 03:10:18;;;;;;;10.30;3.20;;;;;;;14.92;100.00;100646.33;105670;1261;64094;-44
2023/07/19 03:12:45;;;;;;;7.50;2.70;;;;;;;14.97;100.00;100650.15;105617;1256;71410;-44
2023/07/19 03:15:13;;;;;;;7.60;3.00;;;;;;;15.02;100.00;100651.54;105763;1264;60403;-44
2023/07/19 03:17:41;;;;;;;7.00;3.00;;;;;;;15.11;100.00;100648.13;105787;1259;59205;-43
2023/07/19 03:20:11;;;;;;;4.50;2.60;;;;;;;15.23;100.00;100646.46;105768;1253;71748;-43
2023/07/19 03:22:38;;;;;;;8.70;3.10;;;;;;;15.36;100.00;100640.82;105676;1260;63933;-44
2023/07/19 03:25:07;;;;;;;13.00;2.50;;;;;;;15.51;100.00;100638.91;105829;1258;71425;-44
2023/07/19 03:27:34;;;;;;;8.40;3.10;;;;;;;15.66;100.00;100637.48;105805;1259;60046;-44
2023/07/19 03:30:05;;;;;;;4.70;2.20;;;;;;;15.81;100.00;100642.69;105766;1259;59624;-44
2023/07/19 03:32:32;;;;;;;7.60;2.40;;;;;;;15.96;100.00;100652.95;105649;1253;72997;-44
2023/07/19 03:35:01;;;;;;;4.40;2.60;;;;;;;16.12;100.00;100661.21;105756;1259;64360;-43
2023/07/19 03:37:29;;;;;;;8.90;2.30;;;;;;;16.29;100.00;100676.76;105637;1257;71425;-44
2023/07/19 03:39:56;;;;;;;5.30;2.60;;;;;;;16.47;100.00;100700.80;105641;1256;59748;-44
2023/07/19 03:42:24;;;;;;;7.60;2.50;;;;;;;16.63;100.00;100734.83;105878;1257;59602;-43
2023/07/19 03:44:52;;;;;;;5.30;2.50;;;;;;;16.78;100.00;100784.77;105846;1259;72976;-44
2023/07/19 03:47:20;;;;;;;5.70;2.50;;;;;;;16.92;100.00;100851.19;105749;1253;65304;-44
2023/07/19 03:49:48;;;;;;;5.30;2.10;;;;;;;17.04;100.00;100937.05;105737;1257;72666;-44
2023/07/19 03:52:16;;;;;;;7.30;2.30;;;;;;;17.16;100.00;101002.67;105778;1257;59658;-44
2023/07/19 03:54:44;;;;;;;6.80;2.40;;;;;;;17.29;100.00;101015.42;105861;1257;60021;-44
2023/07/19 03:57:12;;;;;;;7.00;2.20;;;;;;;17.44;100.00;100978.95;105857;1257;73104;-44
2023/07/19 03:59:40;;;;;;;6.90;1.90;;;;;;;17.62;100.00;100925.71;105848;1253;63330;-43
2023/07/19 04:02:08;;;;;;;3.30;2.30;;;;;;;17.87;100.00;100867.42;105655;1260;72744;-44
2023/07/19 04:04:36;;;;;;;6.20;1.90;;;;;;;18.18;100.00;100781.98;105643;1253;61634;-43
2023/07/19 04:07:05;;;;;;;5.00;1.90;;;;;;;18.44;100.00;100652.24;105797;1258;59674;-45
2023/07/19 04:09:34;;;;;;;6.00;1.90;;;;;;;18.61;100.00;100528.92;105748;1253;71769;-44
2023/07/19 04:12:03;;;;;;;11.40;2.20;;;;;;;18.72;100.00;100418.23;105752;1259;65024;-45
2023/07/19 04:14:33;;;;;;;5.10;2.30;;;;;;;18.87;100.00;100359.05;105695;1259;72729;-44
2023/07/19 04:17:00;;;;;;;5.40;2.10;;;;;;;19.02;100.00;100285.35;105608;1261;60465;-45
2023/07/19 04:19:29;;;;;;;4.80;1.60;;;;;;;19.24;100.00;100212.61;105801;1258;59688;-44
2023/07/19 04:21:57;;;;;;;3.40;1.70;;;;;;;19.50;100.00;100163.13;105808;1260;71980;-45
2023/07/19 04:24:25;;;;;;;4.20;1.80;;;;;;;19.78;100.00;100147.41;105856;1254;63906;-45
2023/07/19 04:26:53;;;;;;;5.00;2.00;;;;;;;20.05;100.00;100193.10;105662;1261;71480;-44
2023/07/19 04:29:21;;;;;;;3.00;1.80;;;;;;;20.31;100.00;100240.69;105654;1258;59670;-44
2023/07/19 04:31:49;;;;;;;3.70;1.50;;;;;;;20.53;100.00;100275.56;105714;1262;59787;-45
2023/07/19 04:34:17;;;;;;;1.90;1.40;;;;;;;20.77;100.00;100302.83;105693;1253;71757;-44
2023/07/19 04:36:45;;;;;;;3.20;1.80;;;;;;;20.98;100.00;100328.86;105646;1254;63911;-45
2023/07/19 04:39:13;;;;;;;4.10;1.80;;;;;;;21.03;100.00;100367.20;105734;1259;71465;-45
2023/07/19 04:41:42;;;;;;;4.70;1.70;;;;;;;21.05;100.00;100387.91;105877;1253;60014;-45
2023/07/19 04:44:13;;;;;;;3.00;1.60;;;;;;;20.99;100.00;100409.35;105857;1256;59558;-44
2023/07/19 04:46:41;;;;;;;1.70;1.60;;;;;;;20.93;100.00;100416.73;105665;1258;73032;-45
2023/07/19 04:49:09;;;;;;;7.20;1.80;;;;;;;20.86;100.00;100423.65;105679;1259;63952;-43
2023/07/19 04:51:38;;;;;;;2.90;1.90;;;;;;;20.76;100.00;100441.92;105829;1256;71450;-44
2023/07/19 04:54:06;;;;;;;4.90;2.00;;;;;;;20.73;100.00;100438.42;105695;1258;60036;-43
2023/07/19 04:56:34;;;;;;;7.60;2.40;;;;;;;20.60;100.00;100430.45;105834;1254;59548;-44
2023/07/19 04:59:02;;;;;;;3.50;2.10;;;;;;;20.44;100.00;100404.21;105823;1256;71858;-45
2023/07/19 05:01:30;;;;;;;6.40;2.20;;;;;;;20.38;100.00;100376.20;105660;1262;63974;-45
2023/07/19 05:03:58;;;;;;;5.30;2.30;;;;;;;20.37;100.00;100349.98;105716;1259;72677;-44
2023/07/19 05:06:25;;;;;;;5.10;2.10;;;;;;;20.38;100.00;100346.95;105875;1256;59710;-45
2023/07/19 05:08:53;;;;;;;2.60;1.70;;;;;;;20.43;100.00;100346.29;105750;1254;59554;-45
2023/07/19 05:11:22;;;;;;;4.10;2.00;;;;;;;20.40;100.00;100357.16;105632;1259;71515;-45
2023/07/19 05:13:51;;;;;;;7.00;2.20;;;;;;;20.25;100.00;100362.80;105677;1256;65746;-45
2023/07/19 05:16:19;;;;;;;4.90;2.40;;;;;;;20.09;100.00;100346.60;105649;1257;71018;-44
2023/07/19 05:18:47;;;;;;;4.40;2.10;;;;;;;20.02;100.00;100328.23;105816;1260;60550;-46
2023/07/19 05:21:16;;;;;;;5.00;2.40;;;;;;;19.98;100.00;100331.98;105735;1254;60350;-45
2023/07/19 05:23:44;;;;;;;4.50;2.10;;;;;;;19.96;100.00;100330.39;105671;1258;73869;-44
2023/07/19 05:26:12;;;;;;;4.00;2.30;;;;;;;19.93;100.00;100328.27;105775;1259;63783;-43
2023/07/19 05:28:39;;;;;;;8.00;2.40;;;;;;;19.94;100.00;100318.42;105815;1259;71185;-45
2023/07/19 05:31:10;;;;;;;8.00;2.30;;;;;;;19.99;100.00;100316.55;105816;1254;60508;-44
2023/07/19 05:36:13;;;;;;;4.60;2.30;;;;;;;20.26;100.00;100344.01;102725;1292;601032;-46
2023/07/19 05:38:40;;;;;;;5.90;2.50;;;;;;;20.40;100.00;100362.45;105107;1270;59344;-45
2023/07/19 05:41:09;;;;;;;2.90;2.10;;;;;;;20.54;100.00;100377.00;104877;1270;59305;-44
2023/07/19 05:43:36;;;;;;;2.80;2.30;;;;;;;20.69;100.00;100386.57;104850;1267;71220;-44
2023/07/19 05:46:05;;;;;;;3.60;2.20;;;;;;;20.87;100.00;100398.70;105030;1265;64019;-44
2023/07/19 05:48:33;;;;;;;9.00;2.50;;;;;;;21.07;100.00;100403.59;104855;1272;71386;-45
2023/07/19 05:51:02;;;;;;;5.60;2.30;;;;;;;21.33;100.00;100409.98;105004;1264;225220;-45
2023/07/19 05:53:29;;;;;;;5.50;1.70;;;;;;;21.60;100.00;100423.57;105224;1268;59371;-44
2023/07/19 05:55:57;;;;;;;3.60;1.80;;;;;;;21.78;100.00;100445.04;105139;1277;70272;-46
2023/07/19 05:58:27;;;;;;;3.90;2.00;;;;;;;21.99;100.00;100456.14;105155;1269;64062;-46
2023/07/19 06:00:54;;;;;;;2.60;2.00;;;;;;;22.32;100.00;100470.27;105142;1269;70726;-44
2023/07/19 06:03:22;;;;;;;5.60;2.30;;;;;;;22.59;97.92;100460.07;105189;1270;59662;-45
2023/07/19 06:05:50;;;;;;;2.60;1.50;;;;;;;22.62;86.35;100452.61;104930;1268;60843;-44
2023/07/19 06:08:18;;;;;;;2.60;1.70;;;;;;;22.68;82.57;100460.64;104887;1269;72219;-43
2023/07/19 06:10:52;;;;;;;3.60;1.90;;;;;;;22.75;81.09;100468.67;104898;1269;63937;-44
2023/07/19 06:13:20;;;;;;;5.30;2.00;;;;;;;22.74;80.54;100482.77;104929;1269;72557;-45
2023/07/19 06:15:48;;;;;;;3.50;1.70;;;;;;;22.76;81.07;100488.05;105575;1263;59702;-45
2023/07/19 06:18:16;;;;;;;4.70;1.70;;;;;;;22.89;87.72;100505.63;105596;1258;60181;-44
2023/07/19 06:20:44;;;;;;;45.30;3.20;;;;;;;23.25;89.67;100493.00;105588;1256;71733;-44
2023/07/19 06:23:13;;;;;;;7.60;2.10;;;;;;;23.54;79.27;100451.48;105547;1263;64154;-46
2023/07/19 06:25:42;;;;;;;7.30;2.40;;;;;;;23.62;75.25;100443.14;105589;1263;71196;-45
2023/07/19 06:28:10;;;;;;;4.70;1.60;;;;;;;23.50;72.23;100433.27;105565;1263;59668;-47
2023/07/19 06:30:37;;;;;;;3.80;1.60;;;;;;;23.35;70.74;100438.59;105567;1258;59664;-45
2023/07/19 06:33:05;;;;;;;9.50;2.20;;;;;;;23.27;70.14;100446.55;105543;1264;73134;-46
2023/07/19 06:35:36;;;;;;;6.00;2.00;;;;;;;23.26;70.77;100471.27;105552;1259;64031;-45
2023/07/19 06:38:05;;;;;;;5.30;1.70;;;;;;;23.32;72.47;100489.45;105566;1262;71713;-44
2023/07/19 06:40:33;;;;;;;4.30;1.70;;;;;;;23.48;70.97;100463.36;105586;1258;60108;-44
2023/07/19 06:43:01;;;;;;;2.60;2.10;;;;;;;23.59;69.76;100457.99;105635;1257;59499;-44
2023/07/19 06:45:29;;;;;;;6.10;1.90;;;;;;;23.55;67.70;100427.96;105577;1258;71831;-45
2023/07/19 06:47:57;;;;;;;20.10;2.60;;;;;;;23.37;66.65;100429.47;105629;1256;64019;-48
2023/07/19 06:50:25;;;;;;;11.40;2.70;;;;;;;23.21;68.51;100485.48;105526;1264;71499;-44
2023/07/19 06:52:53;;;;;;;16.20;2.50;;;;;;;23.34;69.61;100487.75;105529;1258;59669;-47
2023/07/19 06:55:21;;;;;;;21.90;3.00;;;;;;;23.52;68.94;100476.58;105590;1257;60029;-44
2023/07/19 06:57:48;;;;;;;3.80;1.60;;;;;;;23.56;66.78;100437.77;105507;1257;71805;-44
2023/07/19 07:00:17;;;;;;;5.30;1.70;;;;;;;23.48;66.33;100446.77;105558;1258;63948;-47
2023/07/19 07:02:46;;;;;;;13.00;2.00;;;;;;;23.38;65.61;100442.98;105596;1257;72911;-46
2023/07/19 07:05:14;;;;;;;3.50;1.50;;;;;;;23.37;64.85;100437.42;105555;1263;59762;-44
2023/07/19 07:07:42;;;;;;;5.40;1.90;;;;;;;23.32;64.86;100448.69;105567;1263;59554;-46
2023/07/19 07:10:10;;;;;;;17.10;3.40;;;;;;;23.32;67.50;100509.42;105542;1258;71752;-45
2023/07/19 07:12:37;;;;;;;5.60;1.40;;;;;;;23.49;67.23;100489.67;105608;1257;64038;-46
2023/07/19 07:15:06;;;;;;;2.80;1.30;;;;;;;23.57;63.74;100407.95;105594;1263;71585;-45
2023/07/19 07:17:33;;;;;;;3.40;1.60;;;;;;;23.54;62.70;100398.96;105590;1257;59644;-44
2023/07/19 07:20:02;;;;;;;12.00;1.60;;;;;;;23.53;64.39;100471.45;105522;1262;59702;-46
2023/07/19 07:22:29;;;;;;;6.60;1.60;;;;;;;23.64;60.95;100351.45;105643;1260;73025;-45
2023/07/19 07:24:58;;;;;;;4.40;1.40;;;;;;;23.79;60.01;100342.04;105568;1261;65226;-45
2023/07/19 07:27:29;;;;;;;8.80;2.00;;;;;;;24.01;59.49;100339.29;105544;1258;72771;-44
2023/07/19 07:29:58;;;;;;;7.90;3.00;;;;;;;24.15;60.42;100389.54;105535;1262;59765;-45
2023/07/19 07:32:25;;;;;;;10.10;3.40;;;;;;;24.32;58.66;100304.30;105580;1257;59615;-45
2023/07/19 07:34:53;;;;;;;7.80;2.90;;;;;;;24.35;55.98;100185.98;109263;1257;71808;-45
2023/07/19 07:37:21;;;;;;;7.00;3.10;;;;;;;24.32;57.40;100297.43;109163;1257;64035;-45
2023/07/19 07:39:49;;;;;;;3.40;2.70;;;;;;;24.36;57.37;100307.34;109105;1257;72704;-43
2023/07/19 07:42:16;;;;;;;5.50;2.60;;;;;;;24.44;54.82;100153.55;109121;1257;60031;-46
2023/07/19 07:44:44;;;;;;;29.60;4.10;;;;;;;24.48;55.42;100232.41;109150;1257;60028;-44
2023/07/19 07:47:15;;;;;;;10.30;3.00;;;;;;;24.61;55.78;100275.61;109194;1257;73036;-48
2023/07/19 07:49:43;;;;;;;9.20;2.40;;;;;;;24.82;55.53;100251.86;109166;1257;65166;-45
2023/07/19 07:52:14;;;;;;;8.40;2.60;;;;;;;24.89;54.35;100174.26;109146;1257;72767;-45
2023/07/19 07:54:42;;;;;;;5.10;1.70;;;;;;;24.95;54.47;100205.80;109135;1257;60040;-45
2023/07/19 07:57:09;;;;;;;5.90;1.40;;;;;;;25.04;52.49;100060.56;109302;1257;60103;-47
2023/07/19 07:59:37;;;;;;;8.90;1.80;;;;;;;25.03;52.99;100114.51;109161;1257;73195;-46
2023/07/19 08:02:05;;;;;;;5.50;1.20;;;;;;;25.06;54.02;100222.93;109117;1257;65327;-46
2023/07/19 08:07:54;;;;;;;10.70;1.00;;;;;;;25.26;50.99;99972.17;102950;1292;600689;-45
2023/07/19 08:10:22;;;;;;;4.70;1.00;;;;;;;25.18;50.30;99934.06;105047;1269;60164;-44
2023/07/19 08:12:50;;;;;;;5.50;0.90;;;;;;;24.97;51.06;100029.72;105166;1264;59968;-46
2023/07/19 08:15:19;;;;;;;9.80;1.00;;;;;;;24.89;50.94;100037.81;105133;1269;70610;-45
2023/07/19 08:17:46;;;;;;;2.40;0.70;;;;;;;24.94;51.29;100086.98;105158;1268;65612;-45
2023/07/19 08:20:14;;;;;;;4.70;1.00;;;;;;;25.06;50.99;100051.24;105099;1269;72603;-44
2023/07/19 08:22:42;;;;;;;4.00;0.70;;;;;;;25.17;50.64;100032.84;105075;1261;228341;-45
2023/07/19 08:25:10;;;;;;;5.70;1.20;;;;;;;25.22;49.79;99977.95;105229;1261;60146;-46
2023/07/19 08:27:54;;;;;;;1.10;0.60;;;;;;;25.29;50.05;99985.35;105253;1260;71983;-47
2023/07/19 08:30:23;;;;;;;3.60;0.50;;;;;;;25.49;50.44;100037.78;105274;1263;65170;-45
2023/07/19 08:32:51;;;;;;;1.60;0.70;;;;;;;25.61;48.65;99851.10;105282;1264;71431;-46
2023/07/19 08:35:19;;;;;;;5.80;0.70;;;;;;;25.66;48.71;99877.20;105260;1265;59724;-46
2023/07/19 08:37:47;;;;;;;1.20;0.70;;;;;;;25.75;49.82;99984.15;105272;1266;60010;-45
2023/07/19 08:40:15;;;;;;;15.50;1.30;;;;;;;25.91;50.17;100040.63;105230;1266;72757;-46
2023/07/19 08:42:43;;;;;;;4.00;1.00;;;;;;;26.02;49.58;99962.64;105285;1261;64072;-45
2023/07/19 08:45:11;;;;;;;3.50;0.70;;;;;;;26.04;48.53;99884.20;105273;1261;72603;-44
2023/07/19 08:47:40;;;;;;;2.90;1.10;;;;;;;26.00;48.51;99859.05;105249;1264;60114;-46
2023/07/19 08:50:10;;;;;;;2.40;0.90;;;;;;;26.04;51.22;100140.56;105271;1266;59808;-46
2023/07/19 08:52:38;;;;;;;2.30;1.10;;;;;;;26.31;49.77;100006.98;105264;1265;71758;-47
2023/07/19 08:55:06;;;;;;;4.70;1.60;;;;;;;26.36;48.23;99832.91;105243;1265;63945;-45
2023/07/19 08:57:40;;;;;;;9.60;1.50;;;;;;;26.28;48.25;99866.09;105271;1266;71881;-45
2023/07/19 09:00:09;;;;;;;5.00;1.40;;;;;;;26.20;48.12;99842.00;105283;1263;60031;-42
2023/07/19 09:02:36;;;;;;;4.30;1.70;;;;;;;26.20;48.88;99941.92;105714;1260;59755;-45
2023/07/19 09:05:05;;;;;;;4.70;1.60;;;;;;;26.20;50.59;100118.95;105753;1258;73025;-46
2023/07/19 09:07:33;;;;;;;5.30;1.70;;;;;;;26.45;50.71;100146.92;105533;1262;63941;-47
2023/07/19 09:10:04;;;;;;;8.00;1.70;;;;;;;26.65;49.66;100010.08;105520;1257;72600;-46
2023/07/19 09:12:39;;;;;;;4.00;1.80;;;;;;;26.66;48.36;99902.79;105534;1259;59752;-44
2023/07/19 09:15:11;;;;;;;5.10;1.70;;;;;;;26.74;49.60;100015.45;105307;1258;60428;-45
2023/07/19 09:17:43;;;;;;;2.20;1.50;;;;;;;26.99;49.57;100020.60;105473;1258;73012;-45
2023/07/19 09:20:12;;;;;;;6.90;1.40;;;;;;;27.29;50.04;100045.24;105348;1257;65258;-46
2023/07/19 09:22:40;;;;;;;6.30;1.50;;;;;;;27.47;48.86;99915.23;105491;1257;72685;-46
2023/07/19 09:25:10;;;;;;;7.90;1.30;;;;;;;27.46;48.08;99832.27;105574;1256;59681;-45
2023/07/19 09:27:40;;;;;;;5.50;1.20;;;;;;;27.44;47.07;99704.59;105562;1262;59714;-47
2023/07/19 09:30:09;;;;;;;3.90;1.20;;;;;;;27.30;47.65;99775.91;105478;1261;73017;-48
2023/07/19 09:32:37;;;;;;;5.50;1.10;;;;;;;27.14;47.23;99775.60;105480;1263;65177;-46
2023/07/19 09:35:06;;;;;;;2.50;1.30;;;;;;;26.96;47.06;99775.61;105532;1260;71785;-46
2023/07/19 09:37:34;;;;;;;4.60;1.10;;;;;;;26.80;46.94;99755.33;105355;1260;59794;-47
2023/07/19 09:40:04;;;;;;;5.60;1.00;;;;;;;26.79;47.49;99817.64;105529;1257;59928;-46
2023/07/19 09:42:32;;;;;;;2.90;0.80;;;;;;;26.89;48.58;99971.09;105497;1257;71762;-47
2023/07/19 09:45:00;;;;;;;1.70;0.90;;;;;;;27.08;48.16;99917.81;105443;1259;65271;-47
2023/07/19 09:47:28;;;;;;;6.30;1.30;;;;;;;27.20;46.52;99749.30;105512;1257;71492;-47
2023/07/19 09:49:57;;;;;;;2.80;1.10;;;;;;;27.16;45.79;99655.92;105502;1260;59756;-47
2023/07/19 09:52:26;;;;;;;4.90;1.00;;;;;;;27.06;44.59;99495.79;105493;1261;59655;-48
2023/07/19 09:54:54;;;;;;;5.70;0.80;;;;;;;26.88;46.08;99660.55;105507;1262;73477;-47
2023/07/19 09:57:23;;;;;;;4.00;0.90;;;;;;;26.88;47.86;99902.13;105504;1263;65261;-47
2023/07/19 09:59:50;;;;;;;1.00;0.70;;;;;;;26.99;45.93;99706.75;105565;1260;72589;-48
2023/07/19 10:02:18;;;;;;;9.80;1.10;;;;;;;26.95;46.10;99704.30;105554;1257;60082;-44
2023/07/19 10:04:47;;;;;;;4.30;1.30;;;;;;;26.75;45.85;99698.89;105369;1260;59650;-45
2023/07/19 10:07:21;;;;;;;13.90;1.40;;;;;;;26.48;45.60;99674.41;105448;1258;71867;-46
2023/07/19 10:10:01;;;;;;;42.10;2.10;;;;;;;26.32;46.41;99779.16;105487;1257;63979;-47
2023/07/19 10:12:28;;;;;;;43.90;1.90;;;;;;;26.25;47.44;99922.31;105506;1262;72743;-46
2023/07/19 10:15:06;;;;;;;4.50;1.30;;;;;;;26.28;46.62;99849.06;105509;1260;59813;-46
2023/07/19 10:17:41;;;;;;;15.20;2.10;;;;;;;26.24;46.95;99878.08;105675;1262;59647;-46
2023/07/19 10:20:12;;;;;;;11.40;1.60;;;;;;;26.07;47.74;99983.34;105507;1263;73002;-46
2023/07/19 10:22:55;;;;;;;65.20;5.20;;;;;;;25.86;46.94;99873.77;105540;1263;65184;-45
2023/07/19 10:25:25;;;;;;;10.20;1.80;;;;;;;25.74;47.26;99947.13;105539;1258;71681;-46
2023/07/19 10:28:07;;;;;;;24.50;3.70;;;;;;;25.75;46.02;99801.97;105459;1260;60030;-45
2023/07/19 10:30:45;;;;;;;20.70;2.50;;;;;;;25.82;47.50;99946.73;105566;1263;59785;-45
2023/07/19 10:33:14;;;;;;;10.60;2.00;;;;;;;25.85;47.64;99959.93;105541;1257;71983;-45
2023/07/19 10:35:43;;;;;;;23.90;3.20;;;;;;;25.91;45.61;99776.67;105497;1262;64464;-47
2023/07/19 10:38:18;;;;;;;2.70;0.90;;;;;;;25.98;46.01;99762.91;105494;1258;71410;-46
2023/07/19 10:40:56;;;;;;;2.90;0.70;;;;;;;26.04;45.11;99670.81;105481;1257;60116;-46
2023/07/19 10:43:25;;;;;;;8.30;1.80;;;;;;;26.13;45.32;99651.02;105455;1257;60670;-45
2023/07/19 10:46:13;;;;;;;8.90;1.00;;;;;;;26.45;46.72;99822.24;105526;1260;72079;-46
2023/07/19 10:48:41;;;;;;;2.30;0.90;;;;;;;26.86;47.20;99895.67;105516;1263;65212;-46
2023/07/19 10:51:10;;;;;;;10.50;1.20;;;;;;;27.08;44.01;99526.73;105778;1260;71066;-47
2023/07/19 10:53:43;;;;;;;22.10;2.40;;;;;;;26.94;43.58;99428.55;105504;1262;59829;-47
2023/07/19 10:56:11;;;;;;;12.50;1.90;;;;;;;26.85;43.02;99353.34;109059;1257;60621;-49
2023/07/19 10:58:39;;;;;;;8.80;1.40;;;;;;;26.77;42.64;99322.81;109091;1256;73058;-44
2023/07/19 11:01:07;;;;;;;20.70;5.20;;;;;;;26.60;42.02;99227.68;109073;1256;65230;-45
2023/07/19 11:03:34;;;;;;;2.20;1.50;;;;;;;26.55;41.18;99156.27;109052;1256;71355;-45
2023/07/19 11:09:09;;;;;;;8.90;2.10;;;;;;;26.53;42.59;99322.66;102630;1291;600264;-48
2023/07/19 11:11:38;;;;;;;1.90;1.00;;;;;;;26.58;40.82;99138.58;104900;1266;59273;-45
2023/07/19 11:14:05;;;;;;;3.40;1.00;;;;;;;26.64;42.15;99247.38;105188;1266;59989;-45
2023/07/19 11:16:33;;;;;;;12.10;2.10;;;;;;;26.76;42.75;99340.81;104869;1272;71053;-47
2023/07/19 11:19:01;;;;;;;22.70;1.90;;;;;;;26.85;42.67;99347.70;104895;1269;65132;-48
2023/07/19 11:21:29;;;;;;;3.20;1.10;;;;;;;26.94;41.55;99229.45;104704;1269;228140;-45
2023/07/19 11:23:56;;;;;;;6.40;1.50;;;;;;;26.90;41.51;99163.92;105115;1263;59379;-45
2023/07/19 11:26:24;;;;;;;5.20;1.30;;;;;;;26.82;42.41;99284.97;105893;1256;59365;-47
2023/07/19 11:28:56;;;;;;;5.70;1.20;;;;;;;26.89;41.85;99280.23;105838;1259;71037;-46
2023/07/19 11:31:34;;;;;;;34.00;3.00;;;;;;;26.92;42.52;99333.84;106069;1256;63904;-47
2023/07/19 11:34:14;;;;;;;24.50;2.60;;;;;;;27.07;42.90;99375.81;105878;1256;72630;-47
2023/07/19 11:36:44;;;;;;;16.20;1.70;;;;;;;27.23;44.08;99499.77;105951;1253;62157;-46
2023/07/19 11:39:18;;;;;;;4.80;1.10;;;;;;;27.46;41.62;99259.97;106136;1256;59724;-45
2023/07/19 11:41:46;;;;;;;9.10;2.20;;;;;;;27.47;40.53;99064.05;105928;1253;71839;-46
2023/07/19 11:44:15;;;;;;;3.20;1.70;;;;;;;27.42;41.32;99148.30;106040;1256;63921;-45
2023/07/19 11:46:43;;;;;;;5.60;3.70;;;;;;;27.44;42.12;99261.11;105920;1256;71427;-45
2023/07/19 11:49:11;;;;;;;29.20;26.00;;;;;;;27.52;40.79;99116.55;105894;1254;59743;-46
2023/07/19 11:51:40;;;;;;;8.80;2.70;;;;;;;27.49;40.48;99006.26;105910;1256;59652;-47
2023/07/19 11:54:08;;;;;;;2.20;1.20;;;;;;;27.43;41.38;99167.16;106023;1251;73007;-46
2023/07/19 11:56:36;;;;;;;45.80;26.70;;;;;;;27.42;41.82;99233.86;105943;1253;64076;-46
2023/07/19 11:59:03;;;;;;;5.40;2.90;;;;;;;27.46;42.59;99349.66;105909;1253;72580;-45
2023/07/19 12:01:31;;;;;;;32.40;4.00;;;;;;;27.48;41.55;99230.73;105860;1253;59710;-45
2023/07/19 12:04:01;;;;;;;9.10;3.80;;;;;;;27.42;41.90;99242.53;105880;1253;59622;-45
2023/07/19 12:06:30;;;;;;;3.90;1.80;;;;;;;27.41;41.93;99263.42;105682;1253;71758;-47
2023/07/19 12:08:59;;;;;;;13.60;2.90;;;;;;;27.43;42.58;99356.50;105608;1256;65220;-46
2023/07/19 12:11:26;;;;;;;63.90;48.00;;;;;;;27.50;42.40;99349.92;105644;1259;71455;-48
2023/07/19 12:13:56;;;;;;;13.50;5.30;;;;;;;27.48;41.70;99268.59;105589;1257;59745;-47
2023/07/19 12:16:25;;;;;;;27.80;2.90;;;;;;;27.41;41.63;99221.24;105818;1254;60518;-46